»·PEaware :: WAT234 KLAS-KONT

WAT234 :: KLAS-KONT

FLIGHT INFORMATION

Flight Status: Arrived
Operator: Unknown
More flights by this operator :: More flights under this callsign
Pilot: Eduardo Elias G. (24838)
Aircraft: Unknown
(B748)
More flights by this aircraft type
Origin: KLAS McCarran Intl
United States
Destination: KONT Ontario Intl
United States
More flights between these airports :: More routes between these airports
Route: +BOACH8 WHIGG DCT FEYLA JCKIE2
File this flight plan on PilotEdge
Remarks:
Altitude:
(Current/Filed)
26,000ft
Speed:
(Current/Filed)
435kts
Departed: 20-May-20 09:50 PM
Arrived: 20-May-20 10:27 PM
Distance/Time
Traveled:
171nm/0:37
Distance/Time
To Go:
Arrived

Flight Plot

Page will automatically refresh every two minutes.


Map Options




Map Legend


Flown Route
Filed Route
Departure Airport
Arrival Airport
Navaid (VOR, NDB)
Fix

Horizontal Profiles

Position Reports

Time Latitude Longitude Heading Altitude Ground
Speed
20-May-20 20:59 36.080779 -115.129512 89 2128ft 0kts
20-May-20 21:00 36.080779 -115.129512 89 2128ft 0kts
20-May-20 21:01 36.080779 -115.129512 89 2128ft 0kts
20-May-20 21:02 36.080779 -115.129512 89 2128ft 0kts
20-May-20 21:03 36.080779 -115.129512 89 2128ft 0kts
20-May-20 21:04 36.080779 -115.129512 89 2128ft 0kts
20-May-20 21:05 36.080779 -115.129512 89 2128ft 0kts
20-May-20 21:06 36.080779 -115.129512 89 2128ft 0kts
20-May-20 21:07 36.080779 -115.129512 89 2128ft 0kts
20-May-20 21:08 36.080779 -115.129512 89 2128ft 0kts
20-May-20 21:09 36.080779 -115.129512 89 2128ft 0kts
20-May-20 21:10 36.080779 -115.129512 89 2128ft 0kts
20-May-20 21:11 36.080779 -115.129512 89 2128ft 0kts
20-May-20 21:12 36.080779 -115.129512 89 2128ft 0kts
20-May-20 21:13 36.080779 -115.129512 89 2128ft 0kts
20-May-20 21:14 36.080779 -115.129512 89 2128ft 0kts
20-May-20 21:15 36.080779 -115.129512 89 2128ft 0kts
20-May-20 21:16 36.080779 -115.129512 89 2128ft 0kts
20-May-20 21:17 36.080779 -115.129512 89 2128ft 0kts
20-May-20 21:18 36.080779 -115.129512 89 2128ft 0kts
20-May-20 21:19 36.080779 -115.129512 89 2128ft 0kts
20-May-20 21:20 36.080779 -115.129512 89 2128ft 0kts
20-May-20 21:21 36.080779 -115.129512 89 2128ft 0kts
20-May-20 21:22 36.080779 -115.129512 89 2128ft 0kts
20-May-20 21:23 36.080779 -115.129512 89 2128ft 0kts
20-May-20 21:24 36.080779 -115.129512 89 2128ft 0kts
20-May-20 21:25 36.080779 -115.129512 89 2128ft 0kts
20-May-20 21:26 36.080779 -115.129512 89 2128ft 0kts
20-May-20 21:27 36.080779 -115.129512 89 2128ft 0kts
20-May-20 21:28 36.080779 -115.129512 89 2128ft 0kts
20-May-20 21:29 36.080779 -115.129512 89 2128ft 0kts
20-May-20 21:30 36.080779 -115.129512 89 2128ft 0kts
20-May-20 21:31 36.080779 -115.129512 89 2128ft 0kts
20-May-20 21:32 36.080797 -115.130125 128 2128ft 2kts
20-May-20 21:33 36.081413 -115.130273 179 2128ft 1kts
20-May-20 21:34 36.081458 -115.130274 179 2128ft 0kts
20-May-20 21:35 36.081458 -115.130274 179 2128ft 0kts
20-May-20 21:36 36.081458 -115.130274 179 2128ft 0kts
20-May-20 21:37 36.081458 -115.130274 179 2128ft 0kts
20-May-20 21:38 36.081458 -115.130274 179 2128ft 0kts
20-May-20 21:39 36.081458 -115.130274 179 2128ft 0kts
20-May-20 21:40 36.079254 -115.130685 183 2128ft 18kts
20-May-20 21:41 36.078206 -115.128888 84 2128ft 23kts
20-May-20 21:42 36.078259 -115.124300 90 2128ft 0kts
20-May-20 21:43 36.078256 -115.124099 91 2128ft 5kts
20-May-20 21:44 36.077959 -115.122836 116 2128ft 0kts
20-May-20 21:45 36.077669 -115.122194 109 2128ft 9kts
20-May-20 21:46 36.077558 -115.121814 114 2128ft 0kts
20-May-20 21:47 36.077479 -115.121644 123 2128ft 7kts
20-May-20 21:48 36.076405 -115.121671 260 2128ft 0kts
20-May-20 21:49 36.076341 -115.125818 269 2128ft 78kts
20-May-20 21:50 36.076324 -115.185020 269 4269ft 200kts
20-May-20 21:51 36.059393 -115.260160 216 5581ft 266kts
20-May-20 21:52 35.989782 -115.293251 199 6945ft 269kts
20-May-20 21:53 35.915292 -115.308704 184 8688ft 278kts
20-May-20 21:54 35.833660 -115.313515 176 10941ft 329kts
20-May-20 21:55 35.731599 -115.300763 175 13176ft 385kts
20-May-20 21:56 35.636381 -115.350271 225 16382ft 391kts
20-May-20 21:57 35.562252 -115.451084 230 19312ft 406kts
20-May-20 21:58 35.484373 -115.555767 231 21897ft 424kts
20-May-20 21:59 35.403917 -115.664453 232 24533ft 433kts
20-May-20 22:00 35.323364 -115.772374 232 25958ft 427kts
20-May-20 22:01 35.242847 -115.879829 232 25964ft 427kts
20-May-20 22:02 35.162936 -115.986503 232 25962ft 417kts
20-May-20 22:04 35.088655 -116.084724 232 25856ft 390kts
20-May-20 22:05 35.016367 -116.180069 233 24397ft 377kts
20-May-20 22:06 34.940699 -116.268565 227 22822ft 391kts
20-May-20 22:07 34.859718 -116.360679 230 22589ft 374kts
20-May-20 22:08 34.788600 -116.449305 236 21146ft 360kts
20-May-20 22:09 34.731011 -116.547264 239 20276ft 342kts
20-May-20 22:10 34.679190 -116.634494 239 19525ft 299kts
20-May-20 22:11 34.630482 -116.716240 238 17500ft 295kts
20-May-20 22:12 34.585905 -116.798046 245 15571ft 287kts
20-May-20 22:13 34.548146 -116.882947 242 14130ft 286kts
20-May-20 22:14 34.498140 -116.957251 231 12992ft 284kts
20-May-20 22:15 34.444301 -117.026222 218 11929ft 282kts
20-May-20 22:16 34.373679 -117.071999 209 10931ft 286kts
20-May-20 22:17 34.303037 -117.115608 208 10160ft 284kts
20-May-20 22:18 34.231717 -117.156505 207 10160ft 284kts
20-May-20 22:19 34.160121 -117.197601 207 10160ft 284kts
20-May-20 22:19 34.102206 -117.230720 207 9879ft 267kts
20-May-20 22:21 34.032831 -117.285504 254 8027ft 246kts
20-May-20 22:22 34.029088 -117.363228 271 6197ft 219kts
20-May-20 22:22 34.030926 -117.421616 283 4606ft 202kts
20-May-20 22:24 34.043571 -117.488260 285 2959ft 161kts
20-May-20 22:24 34.052902 -117.531971 284 1766ft 157kts
20-May-20 22:25 34.054952 -117.583507 270 996ft 147kts
20-May-20 22:26 34.054987 -117.609778 270 957ft 14kts
20-May-20 22:27 34.054939 -117.615682 256 957ft 1kts
20-May-20 22:28 34.053804 -117.615626 83 957ft 0kts
20-May-20 22:29 34.053894 -117.610799 90 957ft 34kts
20-May-20 22:30 34.053892 -117.609128 90 957ft 0kts

Navigation Log

Ident Type
Flight plan parsing failed, navigation log unavailable